sensor_id;sensor_type;location;lat;lon;timestamp;temperature;humidity
27162;DHT22;54464;50.558;9.704;2023-03-05T00:01:42;2.80;99.90
27162;DHT22;54464;50.558;9.704;2023-03-05T00:04:12;2.80;99.90
27162;DHT22;54464;50.558;9.704;2023-03-05T00:06:38;2.80;99.90
27162;DHT22;54464;50.558;9.704;2023-03-05T00:09:04;2.70;99.90
27162;DHT22;54464;50.558;9.704;2023-03-05T00:11:31;2.70;99.90
27162;DHT22;54464;50.558;9.704;2023-03-05T00:13:59;2.80;99.90
27162;DHT22;54464;50.558;9.704;2023-03-05T00:16:25;2.90;99.90
27162;DHT22;54464;50.558;9.704;2023-03-05T00:18:52;2.90;99.90
27162;DHT22;54464;50.558;9.704;2023-03-05T00:21:27;2.90;99.90
27162;DHT22;54464;50.558;9.704;2023-03-05T00:23:54;2.90;99.90
27162;DHT22;54464;50.558;9.704;2023-03-05T00:26:23;2.90;99.90
27162;DHT22;54464;50.558;9.704;2023-03-05T00:28:49;2.90;99.90
27162;DHT22;54464;50.558;9.704;2023-03-05T00:31:22;3.00;99.90
27162;DHT22;54464;50.558;9.704;2023-03-05T00:33:53;2.90;99.90
27162;DHT22;54464;50.558;9.704;2023-03-05T00:36:19;2.90;99.90
27162;DHT22;54464;50.558;9.704;2023-03-05T00:38:45;2.90;99.90
27162;DHT22;54464;50.558;9.704;2023-03-05T00:41:10;2.90;99.90
27162;DHT22;54464;50.558;9.704;2023-03-05T00:43:36;2.90;99.90
27162;DHT22;54464;50.558;9.704;2023-03-05T00:46:02;2.90;99.90
27162;DHT22;54464;50.558;9.704;2023-03-05T00:48:28;2.90;99.90
27162;DHT22;54464;50.558;9.704;2023-03-05T00:50:53;2.90;99.90
27162;DHT22;54464;50.558;9.704;2023-03-05T00:53:19;2.90;99.90
27162;DHT22;54464;50.558;9.704;2023-03-05T00:55:45;2.90;99.90
27162;DHT22;54464;50.558;9.704;2023-03-05T00:58:11;2.90;99.90
27162;DHT22;54464;50.558;9.704;2023-03-05T01:00:37;2.80;99.90
27162;DHT22;54464;50.558;9.704;2023-03-05T01:03:02;2.80;99.90
27162;DHT22;54464;50.558;9.704;2023-03-05T01:05:28;2.70;99.90
27162;DHT22;54464;50.558;9.704;2023-03-05T01:07:55;2.70;99.90
27162;DHT22;54464;50.558;9.704;2023-03-05T01:10:21;2.70;99.90
27162;DHT22;54464;50.558;9.704;2023-03-05T01:12:48;2.70;99.90
27162;DHT22;54464;50.558;9.704;2023-03-05T01:15:14;2.70;99.90
27162;DHT22;54464;50.558;9.704;2023-03-05T01:17:40;2.70;99.90
27162;DHT22;54464;50.558;9.704;2023-03-05T01:20:06;2.70;99.90
27162;DHT22;54464;50.558;9.704;2023-03-05T01:22:32;2.70;99.90
27162;DHT22;54464;50.558;9.704;2023-03-05T01:24:57;2.70;99.90
27162;DHT22;54464;50.558;9.704;2023-03-05T01:27:23;2.70;99.90
27162;DHT22;54464;50.558;9.704;2023-03-05T01:29:49;2.70;99.90
27162;DHT22;54464;50.558;9.704;2023-03-05T01:32:14;2.80;99.90
27162;DHT22;54464;50.558;9.704;2023-03-05T01:34:40;2.80;99.90
27162;DHT22;54464;50.558;9.704;2023-03-05T01:37:07;2.80;99.90
27162;DHT22;54464;50.558;9.704;2023-03-05T01:39:32;2.80;99.90
27162;DHT22;54464;50.558;9.704;2023-03-05T01:41:58;2.80;99.90
27162;DHT22;54464;50.558;9.704;2023-03-05T01:44:28;2.80;99.90
27162;DHT22;54464;50.558;9.704;2023-03-05T01:46:54;2.80;99.90
27162;DHT22;54464;50.558;9.704;2023-03-05T01:49:35;2.70;99.90
27162;DHT22;54464;50.558;9.704;2023-03-05T01:52:20;2.80;99.90
27162;DHT22;54464;50.558;9.704;2023-03-05T01:54:49;2.80;99.90
27162;DHT22;54464;50.558;9.704;2023-03-05T01:57:20;2.80;99.90
27162;DHT22;54464;50.558;9.704;2023-03-05T01:59:51;2.80;99.90
27162;DHT22;54464;50.558;9.704;2023-03-05T02:02:19;2.70;99.90
27162;DHT22;54464;50.558;9.704;2023-03-05T02:05:03;2.70;99.90
27162;DHT22;54464;50.558;9.704;2023-03-05T02:07:30;2.60;99.90
27162;DHT22;54464;50.558;9.704;2023-03-05T02:09:55;2.70;99.90
27162;DHT22;54464;50.558;9.704;2023-03-05T02:12:22;2.60;99.90
27162;DHT22;54464;50.558;9.704;2023-03-05T02:14:49;2.70;99.90
27162;DHT22;54464;50.558;9.704;2023-03-05T02:17:16;2.50;99.90
27162;DHT22;54464;50.558;9.704;2023-03-05T02:19:47;2.50;99.90
27162;DHT22;54464;50.558;9.704;2023-03-05T02:22:16;2.60;99.90
27162;DHT22;54464;50.558;9.704;2023-03-05T02:24:43;2.60;99.90
27162;DHT22;54464;50.558;9.704;2023-03-05T02:27:08;2.60;99.90
27162;DHT22;54464;50.558;9.704;2023-03-05T02:29:36;2.60;99.90
27162;DHT22;54464;50.558;9.704;2023-03-05T02:32:03;2.50;99.90
27162;DHT22;54464;50.558;9.704;2023-03-05T02:34:29;2.40;99.90
27162;DHT22;54464;50.558;9.704;2023-03-05T02:36:54;2.40;99.90
27162;DHT22;54464;50.558;9.704;2023-03-05T02:39:20;2.30;99.90
27162;DHT22;54464;50.558;9.704;2023-03-05T02:41:46;2.30;99.90
27162;DHT22;54464;50.558;9.704;2023-03-05T02:44:11;2.30;99.90
27162;DHT22;54464;50.558;9.704;2023-03-05T02:46:37;2.30;99.90
27162;DHT22;54464;50.558;9.704;2023-03-05T02:49:03;2.30;99.90
27162;DHT22;54464;50.558;9.704;2023-03-05T02:51:28;2.30;99.90
27162;DHT22;54464;50.558;9.704;2023-03-05T02:54:03;2.30;99.90
27162;DHT22;54464;50.558;9.704;2023-03-05T02:56:29;2.30;99.90
27162;DHT22;54464;50.558;9.704;2023-03-05T02:58:54;2.20;99.90
27162;DHT22;54464;50.558;9.704;2023-03-05T03:01:20;2.20;99.90
27162;DHT22;54464;50.558;9.704;2023-03-05T03:03:46;2.20;99.90
27162;DHT22;54464;50.558;9.704;2023-03-05T03:06:11;2.20;99.90
27162;DHT22;54464;50.558;9.704;2023-03-05T03:08:37;2.20;99.90
27162;DHT22;54464;50.558;9.704;2023-03-05T03:11:05;2.30;99.90
27162;DHT22;54464;50.558;9.704;2023-03-05T03:13:30;2.20;99.90
27162;DHT22;54464;50.558;9.704;2023-03-05T03:16:08;2.20;99.90
27162;DHT22;54464;50.558;9.704;2023-03-05T03:18:34;2.20;99.90
27162;DHT22;54464;50.558;9.704;2023-03-05T03:21:01;2.20;99.90
27162;DHT22;54464;50.558;9.704;2023-03-05T03:23:27;2.20;99.90
27162;DHT22;54464;50.558;9.704;2023-03-05T03:25:53;2.20;99.90
27162;DHT22;54464;50.558;9.704;2023-03-05T03:28:19;2.20;99.90
27162;DHT22;54464;50.558;9.704;2023-03-05T03:30:47;2.20;99.90
27162;DHT22;54464;50.558;9.704;2023-03-05T03:33:13;2.20;99.90
27162;DHT22;54464;50.558;9.704;2023-03-05T03:35:39;2.20;99.90
27162;DHT22;54464;50.558;9.704;2023-03-05T03:38:05;2.20;99.90
27162;DHT22;54464;50.558;9.704;2023-03-05T03:40:30;2.20;99.90
27162;DHT22;54464;50.558;9.704;2023-03-05T03:42:56;2.20;99.90
27162;DHT22;54464;50.558;9.704;2023-03-05T03:45:23;2.20;99.90
27162;DHT22;54464;50.558;9.704;2023-03-05T03:47:49;2.20;99.90
27162;DHT22;54464;50.558;9.704;2023-03-05T03:50:15;2.10;99.90
27162;DHT22;54464;50.558;9.704;2023-03-05T03:52:40;2.20;99.90
27162;DHT22;54464;50.558;9.704;2023-03-05T03:55:06;2.20;99.90
27162;DHT22;54464;50.558;9.704;2023-03-05T03:57:32;2.20;99.90
27162;DHT22;54464;50.558;9.704;2023-03-05T03:59:58;2.20;99.90
27162;DHT22;54464;50.558;9.704;2023-03-05T04:02:25;2.20;99.90
27162;DHT22;54464;50.558;9.704;2023-03-05T04:04:51;2.20;99.90
27162;DHT22;54464;50.558;9.704;2023-03-05T04:07:17;2.20;99.90
27162;DHT22;54464;50.558;9.704;2023-03-05T04:09:43;2.20;99.90
27162;DHT22;54464;50.558;9.704;2023-03-05T04:12:09;2.20;99.90
27162;DHT22;54464;50.558;9.704;2023-03-05T04:14:35;2.10;99.90
27162;DHT22;54464;50.558;9.704;2023-03-05T04:17:00;2.20;99.90
27162;DHT22;54464;50.558;9.704;2023-03-05T04:19:26;2.10;99.90
27162;DHT22;54464;50.558;9.704;2023-03-05T04:21:52;2.10;99.90
27162;DHT22;54464;50.558;9.704;2023-03-05T04:24:18;2.10;99.90
27162;DHT22;54464;50.558;9.704;2023-03-05T04:26:46;2.10;99.90
27162;DHT22;54464;50.558;9.704;2023-03-05T04:29:12;2.10;99.90
27162;DHT22;54464;50.558;9.704;2023-03-05T04:31:38;2.10;99.90
27162;DHT22;54464;50.558;9.704;2023-03-05T04:34:03;2.10;99.90
27162;DHT22;54464;50.558;9.704;2023-03-05T04:36:29;2.10;99.90
27162;DHT22;54464;50.558;9.704;2023-03-05T04:38:55;2.10;99.90
27162;DHT22;54464;50.558;9.704;2023-03-05T04:41:20;2.20;99.90
27162;DHT22;54464;50.558;9.704;2023-03-05T04:43:46;2.10;99.90
27162;DHT22;54464;50.558;9.704;2023-03-05T04:46:12;2.10;99.90
27162;DHT22;54464;50.558;9.704;2023-03-05T04:48:37;2.10;99.90
27162;DHT22;54464;50.558;9.704;2023-03-05T04:51:03;2.10;99.90
27162;DHT22;54464;50.558;9.704;2023-03-05T04:53:29;2.10;99.90
27162;DHT22;54464;50.558;9.704;2023-03-05T04:55:55;2.10;99.90
27162;DHT22;54464;50.558;9.704;2023-03-05T04:58:21;2.10;99.90
27162;DHT22;54464;50.558;9.704;2023-03-05T05:00:47;2.20;99.90
27162;DHT22;54464;50.558;9.704;2023-03-05T05:03:13;2.20;99.90
27162;DHT22;54464;50.558;9.704;2023-03-05T05:05:39;2.20;99.90
27162;DHT22;54464;50.558;9.704;2023-03-05T05:08:05;2.20;99.90
27162;DHT22;54464;50.558;9.704;2023-03-05T05:10:30;2.20;99.90
27162;DHT22;54464;50.558;9.704;2023-03-05T05:12:56;2.20;99.90
27162;DHT22;54464;50.558;9.704;2023-03-05T05:15:22;2.20;99.90
27162;DHT22;54464;50.558;9.704;2023-03-05T05:17:48;2.20;99.90
27162;DHT22;54464;50.558;9.704;2023-03-05T05:20:15;2.20;99.90
27162;DHT22;54464;50.558;9.704;2023-03-05T05:22:42;2.20;99.90
27162;DHT22;54464;50.558;9.704;2023-03-05T05:25:08;2.20;99.90
27162;DHT22;54464;50.558;9.704;2023-03-05T05:27:35;2.20;99.90
27162;DHT22;54464;50.558;9.704;2023-03-05T05:30:01;2.10;99.90
27162;DHT22;54464;50.558;9.704;2023-03-05T05:32:26;2.10;99.90
27162;DHT22;54464;50.558;9.704;2023-03-05T05:34:54;2.10;99.90
27162;DHT22;54464;50.558;9.704;2023-03-05T05:37:20;2.10;99.90
27162;DHT22;54464;50.558;9.704;2023-03-05T05:39:45;2.10;99.90
27162;DHT22;54464;50.558;9.704;2023-03-05T05:42:22;2.10;99.90
27162;DHT22;54464;50.558;9.704;2023-03-05T05:44:48;2.10;99.90
27162;DHT22;54464;50.558;9.704;2023-03-05T05:47:15;2.10;99.90
27162;DHT22;54464;50.558;9.704;2023-03-05T05:49:40;2.10;99.90
27162;DHT22;54464;50.558;9.704;2023-03-05T05:52:06;2.20;99.90
27162;DHT22;54464;50.558;9.704;2023-03-05T05:54:32;2.10;99.90
27162;DHT22;54464;50.558;9.704;2023-03-05T05:56:57;2.10;99.90
27162;DHT22;54464;50.558;9.704;2023-03-05T05:59:23;2.10;99.90
27162;DHT22;54464;50.558;9.704;2023-03-05T07:06:48;2.20;99.90
27162;DHT22;54464;50.558;9.704;2023-03-05T07:09:29;2.30;99.90
27162;DHT22;54464;50.558;9.704;2023-03-05T07:12:01;2.30;99.90
27162;DHT22;54464;50.558;9.704;2023-03-05T07:19:57;2.40;99.90
27162;DHT22;54464;50.558;9.704;2023-03-05T07:22:35;2.30;99.90
27162;DHT22;54464;50.558;9.704;2023-03-05T07:25:06;2.30;99.90
27162;DHT22;54464;50.558;9.704;2023-03-05T07:27:39;2.30;99.90
27162;DHT22;54464;50.558;9.704;2023-03-05T07:43:11;2.50;99.90
27162;DHT22;54464;50.558;9.704;2023-03-05T07:45:44;2.40;99.90
27162;DHT22;54464;50.558;9.704;2023-03-05T09:13:38;2.80;99.90
27162;DHT22;54464;50.558;9.704;2023-03-05T09:21:23;2.90;99.90
27162;DHT22;54464;50.558;9.704;2023-03-05T09:23:58;3.00;99.90
27162;DHT22;54464;50.558;9.704;2023-03-05T09:26:27;3.00;99.90
27162;DHT22;54464;50.558;9.704;2023-03-05T09:28:58;3.10;99.90
27162;DHT22;54464;50.558;9.704;2023-03-05T09:36:37;3.00;99.90
27162;DHT22;54464;50.558;9.704;2023-03-05T09:45:07;3.20;99.90
27162;DHT22;54464;50.558;9.704;2023-03-05T09:47:58;3.40;99.90
27162;DHT22;54464;50.558;9.704;2023-03-05T09:50:51;3.40;99.90
27162;DHT22;54464;50.558;9.704;2023-03-05T09:53:46;3.60;99.90
27162;DHT22;54464;50.558;9.704;2023-03-05T10:01:35;3.50;99.90
27162;DHT22;54464;50.558;9.704;2023-03-05T10:04:26;3.60;99.90
27162;DHT22;54464;50.558;9.704;2023-03-05T10:07:19;3.50;99.90
27162;DHT22;54464;50.558;9.704;2023-03-05T10:20:40;3.60;99.90
27162;DHT22;54464;50.558;9.704;2023-03-05T10:55:38;3.70;99.90
27162;DHT22;54464;50.558;9.704;2023-03-05T11:09:27;3.80;99.90
27162;DHT22;54464;50.558;9.704;2023-03-05T11:19:48;3.90;99.90
27162;DHT22;54464;50.558;9.704;2023-03-05T11:22:20;3.90;99.90
27162;DHT22;54464;50.558;9.704;2023-03-05T11:27:50;4.00;99.90
27162;DHT22;54464;50.558;9.704;2023-03-05T11:30:28;4.20;99.90
27162;DHT22;54464;50.558;9.704;2023-03-05T11:33:15;4.70;99.90
27162;DHT22;54464;50.558;9.704;2023-03-05T11:35:43;4.90;99.90
27162;DHT22;54464;50.558;9.704;2023-03-05T11:38:25;5.00;99.90
27162;DHT22;54464;50.558;9.704;2023-03-05T11:43:33;4.70;99.90
27162;DHT22;54464;50.558;9.704;2023-03-05T11:46:09;4.50;99.90
27162;DHT22;54464;50.558;9.704;2023-03-05T11:48:39;4.50;99.90
27162;DHT22;54464;50.558;9.704;2023-03-05T11:51:20;4.60;99.90
27162;DHT22;54464;50.558;9.704;2023-03-05T11:59:33;4.40;99.90
27162;DHT22;54464;50.558;9.704;2023-03-05T12:02:00;4.40;99.90
27162;DHT22;54464;50.558;9.704;2023-03-05T12:04:28;4.30;99.90
27162;DHT22;54464;50.558;9.704;2023-03-05T12:07:00;4.30;99.90
27162;DHT22;54464;50.558;9.704;2023-03-05T12:09:40;4.30;99.90
27162;DHT22;54464;50.558;9.704;2023-03-05T12:17:27;4.30;99.90
27162;DHT22;54464;50.558;9.704;2023-03-05T12:20:10;4.50;99.90
27162;DHT22;54464;50.558;9.704;2023-03-05T12:22:39;4.50;99.90
27162;DHT22;54464;50.558;9.704;2023-03-05T12:27:48;4.40;99.90
27162;DHT22;54464;50.558;9.704;2023-03-05T12:32:59;4.10;99.90
27162;DHT22;54464;50.558;9.704;2023-03-05T12:35:28;4.10;99.90
27162;DHT22;54464;50.558;9.704;2023-03-05T12:47:46;4.10;99.90
27162;DHT22;54464;50.558;9.704;2023-03-05T12:55:34;4.10;99.90
27162;DHT22;54464;50.558;9.704;2023-03-05T13:00:41;4.00;99.90
27162;DHT22;54464;50.558;9.704;2023-03-05T13:03:22;3.90;99.90
27162;DHT22;54464;50.558;9.704;2023-03-05T13:05:51;4.00;99.90
27162;DHT22;54464;50.558;9.704;2023-03-05T13:08:32;4.10;99.90
27162;DHT22;54464;50.558;9.704;2023-03-05T13:11:04;4.10;99.90
27162;DHT22;54464;50.558;9.704;2023-03-05T13:13:35;4.00;99.90
27162;DHT22;54464;50.558;9.704;2023-03-05T13:16:03;4.00;99.90
27162;DHT22;54464;50.558;9.704;2023-03-05T13:18:31;4.00;99.90
27162;DHT22;54464;50.558;9.704;2023-03-05T13:21:06;4.00;99.90
27162;DHT22;54464;50.558;9.704;2023-03-05T13:23:33;4.10;99.90
27162;DHT22;54464;50.558;9.704;2023-03-05T13:26:02;4.10;99.90
27162;DHT22;54464;50.558;9.704;2023-03-05T13:28:40;4.00;99.90
27162;DHT22;54464;50.558;9.704;2023-03-05T13:31:15;4.10;99.90
27162;DHT22;54464;50.558;9.704;2023-03-05T13:33:56;4.10;99.90
27162;DHT22;54464;50.558;9.704;2023-03-05T13:36:25;4.20;99.90
27162;DHT22;54464;50.558;9.704;2023-03-05T13:38:54;4.20;99.90
27162;DHT22;54464;50.558;9.704;2023-03-05T13:41:26;4.30;99.90
27162;DHT22;54464;50.558;9.704;2023-03-05T13:43:59;4.30;99.90
27162;DHT22;54464;50.558;9.704;2023-03-05T13:46:32;4.30;99.90
27162;DHT22;54464;50.558;9.704;2023-03-05T13:49:25;4.30;99.90
27162;DHT22;54464;50.558;9.704;2023-03-05T13:51:56;4.20;99.90
27162;DHT22;54464;50.558;9.704;2023-03-05T13:54:26;4.20;99.90
27162;DHT22;54464;50.558;9.704;2023-03-05T13:57:04;4.20;99.90
27162;DHT22;54464;50.558;9.704;2023-03-05T13:59:34;4.20;99.90
27162;DHT22;54464;50.558;9.704;2023-03-05T14:02:10;4.00;99.90
27162;DHT22;54464;50.558;9.704;2023-03-05T14:04:42;4.00;99.90
27162;DHT22;54464;50.558;9.704;2023-03-05T14:07:30;4.00;99.90
27162;DHT22;54464;50.558;9.704;2023-03-05T14:09:57;3.90;99.90
27162;DHT22;54464;50.558;9.704;2023-03-05T14:12:38;3.80;99.90
27162;DHT22;54464;50.558;9.704;2023-03-05T14:15:28;3.80;99.90
27162;DHT22;54464;50.558;9.704;2023-03-05T14:20:38;3.80;99.90
27162;DHT22;54464;50.558;9.704;2023-03-05T14:23:24;3.90;99.90
27162;DHT22;54464;50.558;9.704;2023-03-05T14:25:51;3.90;99.90
27162;DHT22;54464;50.558;9.704;2023-03-05T14:28:25;3.90;99.90
27162;DHT22;54464;50.558;9.704;2023-03-05T14:30:53;3.90;99.90
27162;DHT22;54464;50.558;9.704;2023-03-05T14:33:29;3.90;99.90
27162;DHT22;54464;50.558;9.704;2023-03-05T14:35:56;3.80;99.90
27162;DHT22;54464;50.558;9.704;2023-03-05T14:38:27;4.10;99.90
27162;DHT22;54464;50.558;9.704;2023-03-05T14:40:54;3.90;99.90
27162;DHT22;54464;50.558;9.704;2023-03-05T14:43:21;3.80;99.90
27162;DHT22;54464;50.558;9.704;2023-03-05T14:45:47;3.80;99.90
27162;DHT22;54464;50.558;9.704;2023-03-05T14:48:15;3.80;99.90
27162;DHT22;54464;50.558;9.704;2023-03-05T14:50:47;3.70;99.90
27162;DHT22;54464;50.558;9.704;2023-03-05T14:53:23;3.70;99.90
27162;DHT22;54464;50.558;9.704;2023-03-05T14:55:52;3.80;99.90
27162;DHT22;54464;50.558;9.704;2023-03-05T14:58:24;3.70;99.90
27162;DHT22;54464;50.558;9.704;2023-03-05T15:00:52;3.60;99.90
27162;DHT22;54464;50.558;9.704;2023-03-05T15:03:22;3.50;99.90
27162;DHT22;54464;50.558;9.704;2023-03-05T15:05:53;3.60;99.90
27162;DHT22;54464;50.558;9.704;2023-03-05T15:08:25;3.50;99.90
27162;DHT22;54464;50.558;9.704;2023-03-05T15:10:51;3.50;99.90
27162;DHT22;54464;50.558;9.704;2023-03-05T15:13:23;3.40;99.90
27162;DHT22;54464;50.558;9.704;2023-03-05T15:15:49;3.50;99.90
27162;DHT22;54464;50.558;9.704;2023-03-05T15:18:19;3.30;99.90
27162;DHT22;54464;50.558;9.704;2023-03-05T15:20:49;3.30;99.90
27162;DHT22;54464;50.558;9.704;2023-03-05T15:23:20;3.30;99.90
27162;DHT22;54464;50.558;9.704;2023-03-05T15:25:49;3.20;99.90
27162;DHT22;54464;50.558;9.704;2023-03-05T15:28:16;3.30;99.90
27162;DHT22;54464;50.558;9.704;2023-03-05T15:30:48;3.30;99.90
27162;DHT22;54464;50.558;9.704;2023-03-05T15:33:16;3.30;99.90
27162;DHT22;54464;50.558;9.704;2023-03-05T15:35:42;3.30;99.90
27162;DHT22;54464;50.558;9.704;2023-03-05T15:38:11;3.30;99.90
27162;DHT22;54464;50.558;9.704;2023-03-05T15:40:47;3.40;99.90
27162;DHT22;54464;50.558;9.704;2023-03-05T15:43:20;3.40;99.90
27162;DHT22;54464;50.558;9.704;2023-03-05T15:45:48;3.40;99.90
27162;DHT22;54464;50.558;9.704;2023-03-05T15:48:15;3.40;99.90
27162;DHT22;54464;50.558;9.704;2023-03-05T15:50:44;3.40;99.90
27162;DHT22;54464;50.558;9.704;2023-03-05T15:53:17;3.40;99.90
27162;DHT22;54464;50.558;9.704;2023-03-05T15:55:52;3.30;99.90
27162;DHT22;54464;50.558;9.704;2023-03-05T15:58:17;3.40;99.90
27162;DHT22;54464;50.558;9.704;2023-03-05T16:00:48;3.40;99.90
27162;DHT22;54464;50.558;9.704;2023-03-05T16:03:17;3.30;99.90
27162;DHT22;54464;50.558;9.704;2023-03-05T16:05:43;3.30;99.90
27162;DHT22;54464;50.558;9.704;2023-03-05T16:08:12;3.30;99.90
27162;DHT22;54464;50.558;9.704;2023-03-05T16:10:39;3.30;99.90
27162;DHT22;54464;50.558;9.704;2023-03-05T16:13:15;3.30;99.90
27162;DHT22;54464;50.558;9.704;2023-03-05T16:15:42;3.30;99.90
27162;DHT22;54464;50.558;9.704;2023-03-05T16:18:13;3.30;99.90
27162;DHT22;54464;50.558;9.704;2023-03-05T16:21:08;3.30;99.90
27162;DHT22;54464;50.558;9.704;2023-03-05T16:23:43;3.30;99.90
27162;DHT22;54464;50.558;9.704;2023-03-05T16:26:15;3.30;99.90
27162;DHT22;54464;50.558;9.704;2023-03-05T16:28:48;3.30;99.90
27162;DHT22;54464;50.558;9.704;2023-03-05T16:31:20;3.30;99.90
27162;DHT22;54464;50.558;9.704;2023-03-05T16:33:49;3.30;99.90
27162;DHT22;54464;50.558;9.704;2023-03-05T16:36:30;3.20;99.90
27162;DHT22;54464;50.558;9.704;2023-03-05T16:39:10;3.20;99.90
27162;DHT22;54464;50.558;9.704;2023-03-05T16:41:45;3.20;99.90
27162;DHT22;54464;50.558;9.704;2023-03-05T16:44:17;3.20;99.90
27162;DHT22;54464;50.558;9.704;2023-03-05T16:46:49;3.20;99.90
27162;DHT22;54464;50.558;9.704;2023-03-05T16:49:31;3.20;99.90
27162;DHT22;54464;50.558;9.704;2023-03-05T16:51:57;3.20;99.90
27162;DHT22;54464;50.558;9.704;2023-03-05T16:57:07;3.20;99.90
27162;DHT22;54464;50.558;9.704;2023-03-05T16:59:52;3.20;99.90
27162;DHT22;54464;50.558;9.704;2023-03-05T17:02:21;3.10;99.90
27162;DHT22;54464;50.558;9.704;2023-03-05T17:04:47;3.10;99.90
27162;DHT22;54464;50.558;9.704;2023-03-05T17:07:15;3.20;99.90
27162;DHT22;54464;50.558;9.704;2023-03-05T17:09:41;3.10;99.90
27162;DHT22;54464;50.558;9.704;2023-03-05T17:12:09;3.10;99.90
27162;DHT22;54464;50.558;9.704;2023-03-05T17:14:38;3.10;99.90
27162;DHT22;54464;50.558;9.704;2023-03-05T17:17:19;3.10;99.90
27162;DHT22;54464;50.558;9.704;2023-03-05T17:19:51;3.00;99.90
27162;DHT22;54464;50.558;9.704;2023-03-05T17:22:30;3.10;99.90
27162;DHT22;54464;50.558;9.704;2023-03-05T17:25:01;3.10;99.90
27162;DHT22;54464;50.558;9.704;2023-03-05T17:27:32;3.00;99.90
27162;DHT22;54464;50.558;9.704;2023-03-05T17:30:04;3.10;99.90
27162;DHT22;54464;50.558;9.704;2023-03-05T17:32:42;3.10;99.90
27162;DHT22;54464;50.558;9.704;2023-03-05T17:35:20;3.00;99.90
27162;DHT22;54464;50.558;9.704;2023-03-05T17:37:54;3.00;99.90
27162;DHT22;54464;50.558;9.704;2023-03-05T17:40:23;2.90;99.90
27162;DHT22;54464;50.558;9.704;2023-03-05T17:42:52;3.00;99.90
27162;DHT22;54464;50.558;9.704;2023-03-05T17:45:21;3.00;99.90
27162;DHT22;54464;50.558;9.704;2023-03-05T17:47:55;3.00;99.90
27162;DHT22;54464;50.558;9.704;2023-03-05T17:50:23;2.90;99.90
27162;DHT22;54464;50.558;9.704;2023-03-05T17:52:48;3.10;99.90
27162;DHT22;54464;50.558;9.704;2023-03-05T17:55:15;2.90;99.90
27162;DHT22;54464;50.558;9.704;2023-03-05T17:57:49;2.80;99.90
27162;DHT22;54464;50.558;9.704;2023-03-05T18:00:23;2.90;99.90
27162;DHT22;54464;50.558;9.704;2023-03-05T18:02:50;2.80;99.90
27162;DHT22;54464;50.558;9.704;2023-03-05T18:05:18;2.80;99.90
27162;DHT22;54464;50.558;9.704;2023-03-05T18:07:44;2.80;99.90
27162;DHT22;54464;50.558;9.704;2023-03-05T18:10:11;2.80;99.90
27162;DHT22;54464;50.558;9.704;2023-03-05T18:12:36;2.80;99.90
27162;DHT22;54464;50.558;9.704;2023-03-05T18:15:05;2.80;99.90
27162;DHT22;54464;50.558;9.704;2023-03-05T18:17:31;2.80;99.90
27162;DHT22;54464;50.558;9.704;2023-03-05T18:19:57;2.80;99.90
27162;DHT22;54464;50.558;9.704;2023-03-05T18:22:22;2.70;99.90
27162;DHT22;54464;50.558;9.704;2023-03-05T18:24:48;2.80;99.90
27162;DHT22;54464;50.558;9.704;2023-03-05T18:27:14;2.70;99.90
27162;DHT22;54464;50.558;9.704;2023-03-05T18:29:40;2.70;99.90
27162;DHT22;54464;50.558;9.704;2023-03-05T18:32:05;2.70;99.90
27162;DHT22;54464;50.558;9.704;2023-03-05T18:34:31;2.90;99.90
27162;DHT22;54464;50.558;9.704;2023-03-05T18:36:57;2.70;99.90
27162;DHT22;54464;50.558;9.704;2023-03-05T18:39:25;2.70;99.90
27162;DHT22;54464;50.558;9.704;2023-03-05T18:41:54;2.70;99.90
27162;DHT22;54464;50.558;9.704;2023-03-05T18:44:19;2.70;99.90
27162;DHT22;54464;50.558;9.704;2023-03-05T18:46:46;2.70;99.90
27162;DHT22;54464;50.558;9.704;2023-03-05T18:49:11;2.80;99.90
27162;DHT22;54464;50.558;9.704;2023-03-05T18:51:39;2.70;99.90
27162;DHT22;54464;50.558;9.704;2023-03-05T18:54:06;2.60;99.90
27162;DHT22;54464;50.558;9.704;2023-03-05T18:56:32;2.70;99.90
27162;DHT22;54464;50.558;9.704;2023-03-05T18:58:58;2.80;99.90
27162;DHT22;54464;50.558;9.704;2023-03-05T19:01:24;2.60;99.90
27162;DHT22;54464;50.558;9.704;2023-03-05T19:03:49;2.60;99.90
27162;DHT22;54464;50.558;9.704;2023-03-05T19:06:16;2.50;99.90
27162;DHT22;54464;50.558;9.704;2023-03-05T19:08:42;2.50;99.90
27162;DHT22;54464;50.558;9.704;2023-03-05T19:11:19;2.50;99.90
27162;DHT22;54464;50.558;9.704;2023-03-05T19:13:46;2.50;99.90
27162;DHT22;54464;50.558;9.704;2023-03-05T19:21:37;2.50;99.90
27162;DHT22;54464;50.558;9.704;2023-03-05T19:24:03;2.50;99.90
27162;DHT22;54464;50.558;9.704;2023-03-05T19:26:29;2.50;99.90
27162;DHT22;54464;50.558;9.704;2023-03-05T19:28:55;2.40;99.90
27162;DHT22;54464;50.558;9.704;2023-03-05T19:31:20;2.50;99.90
27162;DHT22;54464;50.558;9.704;2023-03-05T19:33:46;2.50;99.90
27162;DHT22;54464;50.558;9.704;2023-03-05T19:36:12;2.60;99.90
27162;DHT22;54464;50.558;9.704;2023-03-05T19:38:37;2.60;99.90
27162;DHT22;54464;50.558;9.704;2023-03-05T19:41:04;2.30;99.90
27162;DHT22;54464;50.558;9.704;2023-03-05T19:43:30;2.30;99.90
27162;DHT22;54464;50.558;9.704;2023-03-05T19:46:01;2.30;99.90
27162;DHT22;54464;50.558;9.704;2023-03-05T19:48:27;2.50;99.90
27162;DHT22;54464;50.558;9.704;2023-03-05T19:50:53;2.40;99.90
27162;DHT22;54464;50.558;9.704;2023-03-05T19:53:18;2.30;99.90
27162;DHT22;54464;50.558;9.704;2023-03-05T19:55:44;2.30;99.90
27162;DHT22;54464;50.558;9.704;2023-03-05T19:58:10;2.50;99.90
27162;DHT22;54464;50.558;9.704;2023-03-05T20:00:35;2.40;99.90
27162;DHT22;54464;50.558;9.704;2023-03-05T20:03:01;2.30;99.90
27162;DHT22;54464;50.558;9.704;2023-03-05T20:05:27;2.40;99.90
27162;DHT22;54464;50.558;9.704;2023-03-05T20:07:52;2.30;99.90
27162;DHT22;54464;50.558;9.704;2023-03-05T20:10:18;2.30;99.90
27162;DHT22;54464;50.558;9.704;2023-03-05T20:12:44;2.30;99.90
27162;DHT22;54464;50.558;9.704;2023-03-05T20:15:13;2.30;99.90
27162;DHT22;54464;50.558;9.704;2023-03-05T20:17:39;2.30;99.90
27162;DHT22;54464;50.558;9.704;2023-03-05T20:20:05;2.30;99.90
27162;DHT22;54464;50.558;9.704;2023-03-05T20:22:31;2.30;99.90
27162;DHT22;54464;50.558;9.704;2023-03-05T20:24:57;2.30;99.90
27162;DHT22;54464;50.558;9.704;2023-03-05T20:27:22;2.30;99.90
27162;DHT22;54464;50.558;9.704;2023-03-05T20:29:48;2.20;99.90
27162;DHT22;54464;50.558;9.704;2023-03-05T20:32:14;2.20;99.90
27162;DHT22;54464;50.558;9.704;2023-03-05T20:34:39;2.30;99.90
27162;DHT22;54464;50.558;9.704;2023-03-05T20:37:05;2.30;99.90
27162;DHT22;54464;50.558;9.704;2023-03-05T20:39:31;2.30;99.90
27162;DHT22;54464;50.558;9.704;2023-03-05T20:41:57;2.40;99.90
27162;DHT22;54464;50.558;9.704;2023-03-05T20:44:23;2.30;99.90
27162;DHT22;54464;50.558;9.704;2023-03-05T20:46:48;2.20;99.90
27162;DHT22;54464;50.558;9.704;2023-03-05T20:49:26;2.20;99.90
27162;DHT22;54464;50.558;9.704;2023-03-05T20:51:52;2.30;99.90
27162;DHT22;54464;50.558;9.704;2023-03-05T20:54:18;2.20;99.90
27162;DHT22;54464;50.558;9.704;2023-03-05T20:56:44;2.20;99.90
27162;DHT22;54464;50.558;9.704;2023-03-05T20:59:09;2.20;99.90
27162;DHT22;54464;50.558;9.704;2023-03-05T21:01:38;2.20;99.90